sensor_id;sensor_type;location;lat;lon;timestamp;pressure;altitude;pressure_sealevel;temperature;humidity
7337;BME280;54510;42.016;23.098;2022-11-15T00:00:25;-21441.66;;;11.17;56.21
7337;BME280;54510;42.016;23.098;2022-11-15T00:02:54;-21440.97;;;11.14;56.16
7337;BME280;54510;42.016;23.098;2022-11-15T00:05:20;-21436.78;;;10.99;56.81
7337;BME280;54510;42.016;23.098;2022-11-15T00:07:46;-21432.50;;;10.83;57.10
7337;BME280;54510;42.016;23.098;2022-11-15T00:10:11;-21430.41;;;10.76;57.56
7337;BME280;54510;42.016;23.098;2022-11-15T00:12:37;-21423.75;;;10.51;58.50
7337;BME280;54510;42.016;23.098;2022-11-15T00:15:02;-21434.84;;;10.92;57.59
7337;BME280;54510;42.016;23.098;2022-11-15T00:17:28;-21435.69;;;10.95;57.25
7337;BME280;54510;42.016;23.098;2022-11-15T00:19:53;-21430.69;;;10.77;57.47
7337;BME280;54510;42.016;23.098;2022-11-15T00:22:19;-21426.81;;;10.62;57.80
7337;BME280;54510;42.016;23.098;2022-11-15T00:24:44;-21419.72;;;10.37;58.82
7337;BME280;54510;42.016;23.098;2022-11-15T00:27:10;-21418.47;;;10.32;58.28
7337;BME280;54510;42.016;23.098;2022-11-15T00:29:35;-21418.19;;;10.31;58.87
7337;BME280;54510;42.016;23.098;2022-11-15T00:32:04;-21418.63;;;10.33;58.67
7337;BME280;54510;42.016;23.098;2022-11-15T00:34:29;-21426.53;;;10.61;58.05
7337;BME280;54510;42.016;23.098;2022-11-15T00:36:54;-21429.72;;;10.73;57.17
7337;BME280;54510;42.016;23.098;2022-11-15T00:39:20;-21426.81;;;10.62;57.51
7337;BME280;54510;42.016;23.098;2022-11-15T00:41:45;-21426.94;;;10.63;57.66
7337;BME280;54510;42.016;23.098;2022-11-15T00:44:11;-21423.88;;;10.52;57.25
7337;BME280;54510;42.016;23.098;2022-11-15T00:46:36;-21418.63;;;10.33;58.21
7337;BME280;54510;42.016;23.098;2022-11-15T00:49:01;-21420.69;;;10.40;58.35
7337;BME280;54510;42.016;23.098;2022-11-15T00:51:27;-21421.94;;;10.45;58.32
7337;BME280;54510;42.016;23.098;2022-11-15T00:53:52;-21423.63;;;10.51;57.31
7337;BME280;54510;42.016;23.098;2022-11-15T00:56:18;-21425.56;;;10.58;57.12
7337;BME280;54510;42.016;23.098;2022-11-15T00:58:43;-21420.41;;;10.39;56.79
7337;BME280;54510;42.016;23.098;2022-11-15T01:01:10;-21418.06;;;10.30;57.98
7337;BME280;54510;42.016;23.098;2022-11-15T01:03:37;-21417.66;;;10.29;57.31
7337;BME280;54510;42.016;23.098;2022-11-15T01:06:03;-21411.81;;;10.08;57.70
7337;BME280;54510;42.016;23.098;2022-11-15T01:08:28;-21412.63;;;10.11;58.06
7337;BME280;54510;42.016;23.098;2022-11-15T01:10:53;-21411.09;;;10.05;58.22
7337;BME280;54510;42.016;23.098;2022-11-15T01:13:19;-21413.63;;;10.14;57.46
7337;BME280;54510;42.016;23.098;2022-11-15T01:15:44;-21415.69;;;10.22;57.90
7337;BME280;54510;42.016;23.098;2022-11-15T01:18:10;-21413.19;;;10.13;58.01
7337;BME280;54510;42.016;23.098;2022-11-15T01:20:44;-21411.25;;;10.06;57.59
7337;BME280;54510;42.016;23.098;2022-11-15T01:23:09;-21409.31;;;9.99;58.31
7337;BME280;54510;42.016;23.098;2022-11-15T01:25:35;-21413.19;;;10.13;57.95
7337;BME280;54510;42.016;23.098;2022-11-15T01:28:00;-21412.09;;;10.09;58.25
7337;BME280;54510;42.016;23.098;2022-11-15T01:30:26;-21410.28;;;10.02;58.50
7337;BME280;54510;42.016;23.098;2022-11-15T01:32:51;-21407.91;;;9.94;58.05
7337;BME280;54510;42.016;23.098;2022-11-15T01:35:16;-21406.53;;;9.88;58.61
7337;BME280;54510;42.016;23.098;2022-11-15T01:37:42;-21410.41;;;10.03;58.36
7337;BME280;54510;42.016;23.098;2022-11-15T01:40:07;-21409.03;;;9.98;58.55
7337;BME280;54510;42.016;23.098;2022-11-15T01:42:33;-21407.91;;;9.94;58.33
7337;BME280;54510;42.016;23.098;2022-11-15T01:44:58;-21409.72;;;10.00;58.97
7337;BME280;54510;42.016;23.098;2022-11-15T01:47:25;-21414.03;;;10.16;58.11
7337;BME280;54510;42.016;23.098;2022-11-15T01:52:25;-21401.38;;;9.70;58.97
7337;BME280;54510;42.016;23.098;2022-11-15T01:55:16;-21401.66;;;9.71;59.22
7337;BME280;54510;42.016;23.098;2022-11-15T01:57:44;-21407.78;;;9.93;59.20
7337;BME280;54510;42.016;23.098;2022-11-15T02:00:11;-21412.78;;;10.11;58.54
7337;BME280;54510;42.016;23.098;2022-11-15T02:02:37;-21407.22;;;9.91;58.29
7337;BME280;54510;42.016;23.098;2022-11-15T02:05:04;-21408.47;;;9.96;58.36
7337;BME280;54510;42.016;23.098;2022-11-15T02:07:30;-21414.31;;;10.17;57.88
7337;BME280;54510;42.016;23.098;2022-11-15T02:10:04;-21408.75;;;9.97;57.81
7337;BME280;54510;42.016;23.098;2022-11-15T02:12:32;-21402.91;;;9.75;58.50
7337;BME280;54510;42.016;23.098;2022-11-15T02:14:57;-21403.06;;;9.76;58.49
7337;BME280;54510;42.016;23.098;2022-11-15T02:25:39;-21417.09;;;10.27;56.98
7337;BME280;54510;42.016;23.098;2022-11-15T02:33:35;-21403.59;;;9.78;56.54
7337;BME280;54510;42.016;23.098;2022-11-15T02:41:47;-21408.06;;;9.94;56.39
7337;BME280;54510;42.016;23.098;2022-11-15T02:44:30;-21407.63;;;9.93;56.50
7337;BME280;54510;42.016;23.098;2022-11-15T02:47:08;-21396.66;;;9.52;56.89
7337;BME280;54510;42.016;23.098;2022-11-15T02:49:51;-21397.63;;;9.56;56.95
7337;BME280;54510;42.016;23.098;2022-11-15T02:52:20;-21397.34;;;9.55;56.80
7337;BME280;54510;42.016;23.098;2022-11-15T03:00:13;-21391.94;;;9.35;56.94
7337;BME280;54510;42.016;23.098;2022-11-15T03:05:42;-21399.16;;;9.62;56.24
7337;BME280;54510;42.016;23.098;2022-11-15T03:11:15;-21389.16;;;9.25;57.45
7337;BME280;54510;42.016;23.098;2022-11-15T03:13:49;-21392.06;;;9.36;56.93
7337;BME280;54510;42.016;23.098;2022-11-15T03:21:37;-21393.03;;;9.39;57.47
7337;BME280;54510;42.016;23.098;2022-11-15T03:24:06;-21398.59;;;9.60;57.58
7337;BME280;54510;42.016;23.098;2022-11-15T03:26:34;-21406.53;;;9.88;56.64
7337;BME280;54510;42.016;23.098;2022-11-15T03:29:09;-21405.97;;;9.86;56.20
7337;BME280;54510;42.016;23.098;2022-11-15T03:31:42;-21403.88;;;9.79;56.16
7337;BME280;54510;42.016;23.098;2022-11-15T03:34:19;-21400.41;;;9.66;56.87
7337;BME280;54510;42.016;23.098;2022-11-15T03:36:47;-21395.69;;;9.49;57.30
7337;BME280;54510;42.016;23.098;2022-11-15T03:39:14;-21394.44;;;9.44;57.11
7337;BME280;54510;42.016;23.098;2022-11-15T03:41:46;-21394.16;;;9.43;57.17
7337;BME280;54510;42.016;23.098;2022-11-15T03:47:00;-21399.72;;;9.64;57.29
7337;BME280;54510;42.016;23.098;2022-11-15T03:49:34;-21395.13;;;9.47;57.08
7337;BME280;54510;42.016;23.098;2022-11-15T03:52:02;-21386.78;;;9.17;57.96
7337;BME280;54510;42.016;23.098;2022-11-15T03:54:29;-21386.78;;;9.17;58.74
7337;BME280;54510;42.016;23.098;2022-11-15T03:56:54;-21398.19;;;9.58;57.76
7337;BME280;54510;42.016;23.098;2022-11-15T03:59:20;-21400.97;;;9.68;57.11
7337;BME280;54510;42.016;23.098;2022-11-15T04:01:45;-21396.53;;;9.52;56.73
7337;BME280;54510;42.016;23.098;2022-11-15T04:04:10;-21407.78;;;9.93;55.56
7337;BME280;54510;42.016;23.098;2022-11-15T04:06:36;-21400.97;;;9.68;55.15
7337;BME280;54510;42.016;23.098;2022-11-15T04:09:01;-21388.75;;;9.24;56.40
7337;BME280;54510;42.016;23.098;2022-11-15T04:11:27;-21390.81;;;9.31;56.69
7337;BME280;54510;42.016;23.098;2022-11-15T04:13:52;-21401.53;;;9.70;56.23
7337;BME280;54510;42.016;23.098;2022-11-15T04:16:18;-21402.78;;;9.75;55.84
7337;BME280;54510;42.016;23.098;2022-11-15T04:18:43;-21403.88;;;9.79;56.40
7337;BME280;54510;42.016;23.098;2022-11-15T04:21:09;-21408.75;;;9.97;55.79
7337;BME280;54510;42.016;23.098;2022-11-15T04:23:52;-21416.66;;;10.25;55.08
7337;BME280;54510;42.016;23.098;2022-11-15T04:26:20;-21416.81;;;10.26;55.42
7337;BME280;54510;42.016;23.098;2022-11-15T04:28:46;-21411.53;;;10.07;55.48
7337;BME280;54510;42.016;23.098;2022-11-15T04:31:30;-21406.38;;;9.88;56.53
7337;BME280;54510;42.016;23.098;2022-11-15T04:33:55;-21409.16;;;9.98;56.15
7337;BME280;54510;42.016;23.098;2022-11-15T04:36:21;-21409.59;;;10.00;56.49
7337;BME280;54510;42.016;23.098;2022-11-15T04:39:06;-21415.69;;;10.22;55.94
7337;BME280;54510;42.016;23.098;2022-11-15T04:41:31;-21410.69;;;10.04;55.93
7337;BME280;54510;42.016;23.098;2022-11-15T04:43:57;-21411.25;;;10.06;56.27
7337;BME280;54510;42.016;23.098;2022-11-15T04:46:23;-21401.81;;;9.71;57.10
7337;BME280;54510;42.016;23.098;2022-11-15T04:48:49;-21406.81;;;9.89;56.93
7337;BME280;54510;42.016;23.098;2022-11-15T04:51:14;-21404.59;;;9.81;57.52
7337;BME280;54510;42.016;23.098;2022-11-15T04:53:40;-21409.31;;;9.99;56.70
7337;BME280;54510;42.016;23.098;2022-11-15T04:56:05;-21411.25;;;10.06;56.17
7337;BME280;54510;42.016;23.098;2022-11-15T04:58:31;-21416.25;;;10.24;56.57
7337;BME280;54510;42.016;23.098;2022-11-15T05:00:56;-21415.84;;;10.22;56.42
7337;BME280;54510;42.016;23.098;2022-11-15T05:03:21;-21415.56;;;10.21;56.24
7337;BME280;54510;42.016;23.098;2022-11-15T05:06:05;-21412.63;;;10.11;56.39
7337;BME280;54510;42.016;23.098;2022-11-15T05:08:31;-21415.16;;;10.20;56.45
7337;BME280;54510;42.016;23.098;2022-11-15T05:10:57;-21417.66;;;10.29;56.01
7337;BME280;54510;42.016;23.098;2022-11-15T05:13:22;-21413.19;;;10.13;55.68
7337;BME280;54510;42.016;23.098;2022-11-15T05:15:47;-21410.56;;;10.03;55.95
7337;BME280;54510;42.016;23.098;2022-11-15T05:18:13;-21406.09;;;9.87;56.42
7337;BME280;54510;42.016;23.098;2022-11-15T05:20:39;-21400.84;;;9.68;57.29
7337;BME280;54510;42.016;23.098;2022-11-15T05:23:04;-21398.06;;;9.58;57.62
7337;BME280;54510;42.016;23.098;2022-11-15T05:25:30;-21403.06;;;9.76;57.96
7337;BME280;54510;42.016;23.098;2022-11-15T05:27:55;-21415.69;;;10.22;56.54
7337;BME280;54510;42.016;23.098;2022-11-15T05:30:21;-21423.47;;;10.50;55.78
7337;BME280;54510;42.016;23.098;2022-11-15T05:32:47;-21417.78;;;10.29;55.84
7337;BME280;54510;42.016;23.098;2022-11-15T05:35:18;-21406.25;;;9.87;56.65
7337;BME280;54510;42.016;23.098;2022-11-15T05:37:45;-21410.13;;;10.02;56.08
7337;BME280;54510;42.016;23.098;2022-11-15T05:40:11;-21413.19;;;10.13;56.09
7337;BME280;54510;42.016;23.098;2022-11-15T05:42:37;-21415.41;;;10.21;55.34
7337;BME280;54510;42.016;23.098;2022-11-15T05:45:05;-21416.94;;;10.26;54.94
7337;BME280;54510;42.016;23.098;2022-11-15T05:47:31;-21421.25;;;10.42;54.85
7337;BME280;54510;42.016;23.098;2022-11-15T05:49:59;-21418.06;;;10.30;54.94
7337;BME280;54510;42.016;23.098;2022-11-15T05:52:28;-21417.50;;;10.28;55.35
7337;BME280;54510;42.016;23.098;2022-11-15T05:54:56;-21415.56;;;10.21;54.78
7337;BME280;54510;42.016;23.098;2022-11-15T05:57:23;-21415.97;;;10.23;54.98
7337;BME280;54510;42.016;23.098;2022-11-15T05:59:49;-21411.53;;;10.07;55.07
7337;BME280;54510;42.016;23.098;2022-11-15T06:02:15;-21404.72;;;9.82;55.60
7337;BME280;54510;42.016;23.098;2022-11-15T06:04:41;-21407.09;;;9.90;55.73
7337;BME280;54510;42.016;23.098;2022-11-15T06:07:06;-21409.03;;;9.98;55.96
7337;BME280;54510;42.016;23.098;2022-11-15T06:09:31;-21411.81;;;10.08;55.27
7337;BME280;54510;42.016;23.098;2022-11-15T06:11:57;-21410.84;;;10.04;55.07
7337;BME280;54510;42.016;23.098;2022-11-15T06:14:22;-21416.53;;;10.25;54.86
7337;BME280;54510;42.016;23.098;2022-11-15T06:16:47;-21415.00;;;10.19;55.22
7337;BME280;54510;42.016;23.098;2022-11-15T06:19:13;-21413.88;;;10.15;56.00
7337;BME280;54510;42.016;23.098;2022-11-15T06:21:38;-21416.25;;;10.24;55.10
7337;BME280;54510;42.016;23.098;2022-11-15T06:24:04;-21417.94;;;10.30;55.39
7337;BME280;54510;42.016;23.098;2022-11-15T06:26:30;-21421.53;;;10.43;55.16
7337;BME280;54510;42.016;23.098;2022-11-15T06:28:55;-21422.91;;;10.48;55.15
7337;BME280;54510;42.016;23.098;2022-11-15T06:31:21;-21414.88;;;10.19;55.67
7337;BME280;54510;42.016;23.098;2022-11-15T06:33:46;-21414.59;;;10.18;55.32
7337;BME280;54510;42.016;23.098;2022-11-15T06:36:12;-21413.19;;;10.13;55.28
7337;BME280;54510;42.016;23.098;2022-11-15T06:38:44;-21427.09;;;10.63;54.81
7337;BME280;54510;42.016;23.098;2022-11-15T06:41:10;-21428.47;;;10.68;53.98
7337;BME280;54510;42.016;23.098;2022-11-15T06:43:37;-21425.69;;;10.58;54.51
7337;BME280;54510;42.016;23.098;2022-11-15T06:46:04;-21427.63;;;10.65;54.64
7337;BME280;54510;42.016;23.098;2022-11-15T06:48:31;-21425.69;;;10.58;54.02
7337;BME280;54510;42.016;23.098;2022-11-15T06:50:59;-21432.22;;;10.82;54.05
7337;BME280;54510;42.016;23.098;2022-11-15T06:53:25;-21442.06;;;11.18;53.66
7337;BME280;54510;42.016;23.098;2022-11-15T06:55:51;-21443.47;;;11.23;53.77
7337;BME280;54510;42.016;23.098;2022-11-15T06:58:17;-21442.75;;;11.21;53.65
7337;BME280;54510;42.016;23.098;2022-11-15T07:00:43;-21439.28;;;11.08;54.50
7337;BME280;54510;42.016;23.098;2022-11-15T07:03:09;-21437.63;;;11.02;55.17
7337;BME280;54510;42.016;23.098;2022-11-15T07:05:35;-21446.22;;;11.33;55.12
7337;BME280;54510;42.016;23.098;2022-11-15T07:08:01;-21445.97;;;11.32;54.67
7337;BME280;54510;42.016;23.098;2022-11-15T07:10:27;-21444.16;;;11.26;55.04
7337;BME280;54510;42.016;23.098;2022-11-15T07:12:53;-21449.56;;;11.45;54.49
7337;BME280;54510;42.016;23.098;2022-11-15T07:15:21;-21452.47;;;11.56;54.45
7337;BME280;54510;42.016;23.098;2022-11-15T07:17:46;-21458.31;;;11.77;53.76
7337;BME280;54510;42.016;23.098;2022-11-15T07:20:12;-21459.53;;;11.82;54.22
7337;BME280;54510;42.016;23.098;2022-11-15T07:22:41;-21464.53;;;12.00;53.76
7337;BME280;54510;42.016;23.098;2022-11-15T07:25:07;-21473.97;;;12.35;53.38
7337;BME280;54510;42.016;23.098;2022-11-15T07:27:33;-21469.94;;;12.20;53.31
7337;BME280;54510;42.016;23.098;2022-11-15T07:29:58;-21459.53;;;11.82;53.72
7337;BME280;54510;42.016;23.098;2022-11-15T07:32:24;-21455.94;;;11.69;54.44
7337;BME280;54510;42.016;23.098;2022-11-15T07:34:50;-21455.66;;;11.68;55.04
7337;BME280;54510;42.016;23.098;2022-11-15T07:37:15;-21456.63;;;11.71;55.58
7337;BME280;54510;42.016;23.098;2022-11-15T07:39:42;-21463.84;;;11.98;54.74
7337;BME280;54510;42.016;23.098;2022-11-15T07:42:07;-21467.59;;;12.11;54.08
7337;BME280;54510;42.016;23.098;2022-11-15T07:44:51;-21470.22;;;12.21;54.16
7337;BME280;54510;42.016;23.098;2022-11-15T07:47:17;-21469.25;;;12.17;54.28
7337;BME280;54510;42.016;23.098;2022-11-15T07:49:42;-21482.41;;;12.65;53.71
7337;BME280;54510;42.016;23.098;2022-11-15T07:52:07;-21481.31;;;12.61;53.86
7337;BME280;54510;42.016;23.098;2022-11-15T07:54:33;-21481.56;;;12.62;53.74
7337;BME280;54510;42.016;23.098;2022-11-15T07:56:58;-21482.53;;;12.66;53.64
7337;BME280;54510;42.016;23.098;2022-11-15T07:59:24;-21490.56;;;12.95;53.26
7337;BME280;54510;42.016;23.098;2022-11-15T08:01:49;-21491.00;;;12.97;53.08
7337;BME280;54510;42.016;23.098;2022-11-15T08:04:15;-21487.81;;;12.85;53.22
7337;BME280;54510;42.016;23.098;2022-11-15T08:06:40;-21495.84;;;13.15;53.18
7337;BME280;54510;42.016;23.098;2022-11-15T08:09:05;-21502.19;;;13.38;52.35
7337;BME280;54510;42.016;23.098;2022-11-15T08:11:31;-21499.72;;;13.29;52.68
7337;BME280;54510;42.016;23.098;2022-11-15T08:13:56;-21503.31;;;13.42;52.70
7337;BME280;54510;42.016;23.098;2022-11-15T08:16:22;-21498.06;;;13.23;52.54
7337;BME280;54510;42.016;23.098;2022-11-15T08:18:48;-21511.59;;;13.72;51.54
7337;BME280;54510;42.016;23.098;2022-11-15T08:21:18;-21505.53;;;13.50;51.92
7337;BME280;54510;42.016;23.098;2022-11-15T08:23:44;-21515.06;;;13.85;51.12
7337;BME280;54510;42.016;23.098;2022-11-15T08:26:09;-21517.97;;;13.96;51.13
7337;BME280;54510;42.016;23.098;2022-11-15T08:28:35;-21516.03;;;13.89;50.76
7337;BME280;54510;42.016;23.098;2022-11-15T08:31:01;-21522.66;;;14.13;50.67
7337;BME280;54510;42.016;23.098;2022-11-15T08:33:27;-21518.66;;;13.98;50.46
7337;BME280;54510;42.016;23.098;2022-11-15T08:35:56;-21521.56;;;14.09;50.68
7337;BME280;54510;42.016;23.098;2022-11-15T08:38:22;-21523.63;;;14.16;50.26
7337;BME280;54510;42.016;23.098;2022-11-15T08:40:47;-21531.94;;;14.47;49.40
7337;BME280;54510;42.016;23.098;2022-11-15T08:43:13;-21540.06;;;14.77;48.76
7337;BME280;54510;42.016;23.098;2022-11-15T08:45:38;-21535.66;;;14.60;48.83
7337;BME280;54510;42.016;23.098;2022-11-15T08:48:04;-21537.19;;;14.66;48.77
7337;BME280;54510;42.016;23.098;2022-11-15T08:50:30;-21541.72;;;14.83;48.28
7337;BME280;54510;42.016;23.098;2022-11-15T08:52:55;-21544.22;;;14.92;48.00
7337;BME280;54510;42.016;23.098;2022-11-15T08:55:21;-21535.38;;;14.59;48.42
7337;BME280;54510;42.016;23.098;2022-11-15T08:57:46;-21525.16;;;14.22;49.91
7337;BME280;54510;42.016;23.098;2022-11-15T09:00:12;-21509.13;;;13.63;50.80
7337;BME280;54510;42.016;23.098;2022-11-15T09:02:41;-21501.09;;;13.34;52.00
7337;BME280;54510;42.016;23.098;2022-11-15T09:05:07;-21521.16;;;14.07;50.98
7337;BME280;54510;42.016;23.098;2022-11-15T09:07:33;-21533.19;;;14.51;50.17
7337;BME280;54510;42.016;23.098;2022-11-15T09:09:58;-21528.34;;;14.34;50.29
7337;BME280;54510;42.016;23.098;2022-11-15T09:12:24;-21527.66;;;14.31;50.24
7337;BME280;54510;42.016;23.098;2022-11-15T09:14:50;-21523.34;;;14.15;50.62
7337;BME280;54510;42.016;23.098;2022-11-15T09:17:16;-21523.09;;;14.14;51.14
7337;BME280;54510;42.016;23.098;2022-11-15T09:19:41;-21535.25;;;14.59;50.44
7337;BME280;54510;42.016;23.098;2022-11-15T09:22:07;-21535.66;;;14.60;49.81
7337;BME280;54510;42.016;23.098;2022-11-15T09:24:34;-21534.84;;;14.57;50.38
7337;BME280;54510;42.016;23.098;2022-11-15T09:26:59;-21541.72;;;14.83;49.68
7337;BME280;54510;42.016;23.098;2022-11-15T09:29:25;-21523.78;;;14.17;51.21
7337;BME280;54510;42.016;23.098;2022-11-15T09:31:53;-21513.97;;;13.81;52.24
7337;BME280;54510;42.016;23.098;2022-11-15T09:34:19;-21522.81;;;14.13;52.24
7337;BME280;54510;42.016;23.098;2022-11-15T09:36:46;-21536.22;;;14.62;51.06
7337;BME280;54510;42.016;23.098;2022-11-15T09:39:11;-21537.31;;;14.67;50.76
7337;BME280;54510;42.016;23.098;2022-11-15T09:41:40;-21540.34;;;14.78;50.76
7337;BME280;54510;42.016;23.098;2022-11-15T09:49:43;-21557.75;;;15.41;49.87
7337;BME280;54510;42.016;23.098;2022-11-15T09:52:10;-21536.34;;;14.63;51.58
7337;BME280;54510;42.016;23.098;2022-11-15T09:54:37;-21539.25;;;14.74;51.92
7337;BME280;54510;42.016;23.098;2022-11-15T09:57:11;-21540.63;;;14.79;51.93
7337;BME280;54510;42.016;23.098;2022-11-15T09:59:57;-21545.19;;;14.95;51.97
7337;BME280;54510;42.016;23.098;2022-11-15T10:05:09;-21562.44;;;15.59;51.21
7337;BME280;54510;42.016;23.098;2022-11-15T10:12:55;-21572.09;;;15.94;51.77
7337;BME280;54510;42.016;23.098;2022-11-15T10:15:20;-21581.19;;;16.28;51.32
7337;BME280;54510;42.016;23.098;2022-11-15T10:20:35;-21570.03;;;15.87;52.46
7337;BME280;54510;42.016;23.098;2022-11-15T10:23:11;-21576.50;;;16.10;52.13
7337;BME280;54510;42.016;23.098;2022-11-15T10:25:38;-21588.50;;;16.54;50.91
7337;BME280;54510;42.016;23.098;2022-11-15T10:30:55;-21586.16;;;16.46;50.40
7337;BME280;54510;42.016;23.098;2022-11-15T10:33:38;-21575.28;;;16.06;51.48
7337;BME280;54510;42.016;23.098;2022-11-15T10:41:16;-21597.19;;;16.86;50.30
7337;BME280;54510;42.016;23.098;2022-11-15T10:43:42;-21602.28;;;17.05;49.86
7337;BME280;54510;42.016;23.098;2022-11-15T10:46:20;-21602.69;;;17.07;49.41
7337;BME280;54510;42.016;23.098;2022-11-15T10:48:45;-21588.91;;;16.56;50.73
7337;BME280;54510;42.016;23.098;2022-11-15T10:51:21;-21583.13;;;16.35;51.47
7337;BME280;54510;42.016;23.098;2022-11-15T10:53:48;-21595.13;;;16.79;50.58
7337;BME280;54510;42.016;23.098;2022-11-15T10:56:14;-21599.81;;;16.96;50.10
7337;BME280;54510;42.016;23.098;2022-11-15T10:58:52;-21609.31;;;17.31;48.79
7337;BME280;54510;42.016;23.098;2022-11-15T11:01:28;-21608.06;;;17.26;48.86
7337;BME280;54510;42.016;23.098;2022-11-15T11:04:21;-21613.69;;;17.47;48.51
7337;BME280;54510;42.016;23.098;2022-11-15T11:09:31;-21630.34;;;18.08;47.42
7337;BME280;54510;42.016;23.098;2022-11-15T11:11:58;-21626.38;;;17.94;47.53
7337;BME280;54510;42.016;23.098;2022-11-15T11:14:30;-21634.63;;;18.24;46.74
7337;BME280;54510;42.016;23.098;2022-11-15T11:17:02;-21639.44;;;18.42;46.74
7337;BME280;54510;42.016;23.098;2022-11-15T11:19:46;-21637.38;;;18.34;46.95
7337;BME280;54510;42.016;23.098;2022-11-15T11:22:23;-21642.03;;;18.51;46.23
7337;BME280;54510;42.016;23.098;2022-11-15T11:31:06;-21639.84;;;18.43;46.55
7337;BME280;54510;42.016;23.098;2022-11-15T11:33:42;-21650.56;;;18.83;45.65
7337;BME280;54510;42.016;23.098;2022-11-15T11:44:32;-21668.28;;;19.48;44.67
7337;BME280;54510;42.016;23.098;2022-11-15T11:47:00;-21672.38;;;19.63;44.33
7337;BME280;54510;42.016;23.098;2022-11-15T11:49:50;-21671.44;;;19.60;44.20
7337;BME280;54510;42.016;23.098;2022-11-15T11:52:17;-21666.06;;;19.40;44.49
7337;BME280;54510;42.016;23.098;2022-11-15T11:57:41;-21681.16;;;19.96;43.92
7337;BME280;54510;42.016;23.098;2022-11-15T12:00:26;-21682.69;;;20.01;43.77
7337;BME280;54510;42.016;23.098;2022-11-15T12:05:54;-21690.34;;;20.30;43.54
7337;BME280;54510;42.016;23.098;2022-11-15T12:08:57;-21688.16;;;20.22;43.44
7337;BME280;54510;42.016;23.098;2022-11-15T12:11:30;-21692.41;;;20.37;43.29
7337;BME280;54510;42.016;23.098;2022-11-15T12:14:04;-21692.16;;;20.36;43.43
7337;BME280;54510;42.016;23.098;2022-11-15T12:16:32;-21696.66;;;20.53;43.29
7337;BME280;54510;42.016;23.098;2022-11-15T12:19:02;-21702.00;;;20.73;43.08
7337;BME280;54510;42.016;23.098;2022-11-15T12:21:46;-21695.72;;;20.49;43.23
7337;BME280;54510;42.016;23.098;2022-11-15T12:24:26;-21691.72;;;20.35;43.36
7337;BME280;54510;42.016;23.098;2022-11-15T12:27:21;-21704.59;;;20.82;43.09
7337;BME280;54510;42.016;23.098;2022-11-15T12:30:02;-21717.34;;;21.29;42.63
7337;BME280;54510;42.016;23.098;2022-11-15T12:32:31;-21723.22;;;21.51;42.84
7337;BME280;54510;42.016;23.098;2022-11-15T12:34:58;-21724.47;;;21.56;42.54
7337;BME280;54510;42.016;23.098;2022-11-15T12:40:16;-21729.66;;;21.75;42.20
7337;BME280;54510;42.016;23.098;2022-11-15T12:43:03;-21740.34;;;22.15;41.42
7337;BME280;54510;42.016;23.098;2022-11-15T12:45:35;-21747.72;;;22.42;41.18
7337;BME280;54510;42.016;23.098;2022-11-15T12:58:52;-21761.78;;;22.94;39.78
7337;BME280;54510;42.016;23.098;2022-11-15T13:07:03;-21746.34;;;22.37;40.35
7337;BME280;54510;42.016;23.098;2022-11-15T13:14:51;-21742.66;;;22.23;40.43
7337;BME280;54510;42.016;23.098;2022-11-15T13:17:27;-21741.69;;;22.20;40.91
7337;BME280;54510;42.016;23.098;2022-11-15T13:30:49;-21761.78;;;22.94;39.96
7337;BME280;54510;42.016;23.098;2022-11-15T13:33:18;-21758.25;;;22.81;39.50
7337;BME280;54510;42.016;23.098;2022-11-15T13:35:53;-21752.50;;;22.60;40.17
7337;BME280;54510;42.016;23.098;2022-11-15T13:38:28;-21750.84;;;22.54;40.33
7337;BME280;54510;42.016;23.098;2022-11-15T13:40:55;-21759.59;;;22.86;39.89
7337;BME280;54510;42.016;23.098;2022-11-15T13:48:32;-21759.59;;;22.86;39.58
7337;BME280;54510;42.016;23.098;2022-11-15T13:50:59;-21758.09;;;22.80;39.50
7337;BME280;54510;42.016;23.098;2022-11-15T13:53:26;-21759.59;;;22.86;39.80
7337;BME280;54510;42.016;23.098;2022-11-15T13:55:53;-21764.53;;;23.04;39.61
7337;BME280;54510;42.016;23.098;2022-11-15T13:58:20;-21773.00;;;23.36;38.92
7337;BME280;54510;42.016;23.098;2022-11-15T14:00:46;-21765.75;;;23.09;39.28
7337;BME280;54510;42.016;23.098;2022-11-15T14:03:24;-21768.06;;;23.17;39.36
7337;BME280;54510;42.016;23.098;2022-11-15T14:06:11;-21751.97;;;22.58;40.07
7337;BME280;54510;42.016;23.098;2022-11-15T14:11:28;-21766.56;;;23.12;39.69
7337;BME280;54510;42.016;23.098;2022-11-15T14:16:39;-21768.63;;;23.19;39.06
7337;BME280;54510;42.016;23.098;2022-11-15T14:19:09;-21763.16;;;22.99;39.55
7337;BME280;54510;42.016;23.098;2022-11-15T14:21:35;-21772.72;;;23.35;38.67
7337;BME280;54510;42.016;23.098;2022-11-15T14:24:20;-21769.16;;;23.21;38.74
7337;BME280;54510;42.016;23.098;2022-11-15T14:26:46;-21765.63;;;23.08;39.01
7337;BME280;54510;42.016;23.098;2022-11-15T14:29:28;-21757.69;;;22.79;39.61
7337;BME280;54510;42.016;23.098;2022-11-15T14:32:16;-21752.09;;;22.58;39.96
7337;BME280;54510;42.016;23.098;2022-11-15T14:34:42;-21744.31;;;22.29;40.66
7337;BME280;54510;42.016;23.098;2022-11-15T14:37:32;-21742.66;;;22.23;40.75
7337;BME280;54510;42.016;23.098;2022-11-15T14:40:03;-21737.19;;;22.03;41.12
7337;BME280;54510;42.016;23.098;2022-11-15T14:42:29;-21725.16;;;21.58;41.78
7337;BME280;54510;42.016;23.098;2022-11-15T14:44:54;-21725.16;;;21.58;41.87
7337;BME280;54510;42.016;23.098;2022-11-15T14:47:20;-21719.53;;;21.38;42.50
7337;BME280;54510;42.016;23.098;2022-11-15T14:49:45;-21717.63;;;21.31;42.42
7337;BME280;54510;42.016;23.098;2022-11-15T14:52:31;-21724.59;;;21.56;41.98
7337;BME280;54510;42.016;23.098;2022-11-15T14:55:03;-21724.06;;;21.54;41.79
7337;BME280;54510;42.016;23.098;2022-11-15T14:57:30;-21718.16;;;21.33;42.21
7337;BME280;54510;42.016;23.098;2022-11-15T14:59:55;-21713.25;;;21.14;42.77
7337;BME280;54510;42.016;23.098;2022-11-15T15:02:24;-21705.03;;;20.84;43.15
7337;BME280;54510;42.016;23.098;2022-11-15T15:04:50;-21708.72;;;20.98;43.10
7337;BME280;54510;42.016;23.098;2022-11-15T15:07:17;-21705.28;;;20.85;43.05
7337;BME280;54510;42.016;23.098;2022-11-15T15:09:43;-21704.06;;;20.80;43.24
7337;BME280;54510;42.016;23.098;2022-11-15T15:12:29;-21698.31;;;20.59;43.74
7337;BME280;54510;42.016;23.098;2022-11-15T15:14:55;-21692.69;;;20.38;43.80